Time;durP1;ratioP1;P1;durP2;ratioP2;P2;SDS_P1;SDS_P2;PMS_P1;PMS_P2;Temp;Humidity;BMP_temperature;BMP_pressure;BME280_temperature;BME280_humidity;BME280_pressure;Samples;Min_cycle;Max_cycle;Signal;HPM_P1;HPM_P2
2022/06/15 00:01:02;;;;;;;3.10;1.88;;;;;;;17.05;56.60;98630.97;4121906;28;20206;-61
2022/06/15 00:03:03;;;;;;;2.88;2.17;;;;;;;16.99;56.57;98634.88;4136112;28;20210;-61
2022/06/15 00:05:06;;;;;;;2.92;1.67;;;;;;;16.95;56.93;98628.25;4120983;28;20206;-61
2022/06/15 00:07:07;;;;;;;2.88;1.50;;;;;;;16.90;56.80;98631.06;4136617;28;20221;-61
2022/06/15 00:09:10;;;;;;;1.83;1.67;;;;;;;16.88;56.33;98630.53;4134802;28;20348;-61
2022/06/15 00:11:39;;;;;;;2.03;1.50;;;;;;;16.85;56.17;98620.06;4122217;28;20354;-60
2022/06/15 00:13:41;;;;;;;7.15;3.30;;;;;;;16.89;56.02;98623.88;4136088;28;20237;-61
2022/06/15 00:15:45;;;;;;;1.45;1.35;;;;;;;16.83;55.80;98625.03;4140463;28;20586;-61
2022/06/15 00:17:47;;;;;;;1.65;1.17;;;;;;;16.83;55.69;98618.69;4125686;28;20217;-61
2022/06/15 00:19:49;;;;;;;5.00;2.00;;;;;;;16.84;55.78;98625.84;4124240;28;20233;-61
2022/06/15 00:21:51;;;;;;;1.80;1.23;;;;;;;16.84;55.92;98615.63;4120192;28;20679;-61
2022/06/15 00:23:53;;;;;;;1.92;1.40;;;;;;;16.80;56.06;98622.00;4127188;28;20234;-61
2022/06/15 00:25:55;;;;;;;2.25;1.88;;;;;;;16.74;56.12;98623.16;4134866;28;20738;-62
2022/06/15 00:27:56;;;;;;;1.73;1.23;;;;;;;16.69;56.22;98618.50;4120488;28;20654;-62
2022/06/15 00:29:58;;;;;;;1.88;1.33;;;;;;;16.64;56.74;98614.94;4120903;28;20206;-61
2022/06/15 00:32:00;;;;;;;6.15;2.08;;;;;;;16.59;56.98;98615.81;4136798;28;20933;-61
2022/06/15 00:34:02;;;;;;;1.90;1.52;;;;;;;16.55;57.07;98611.97;4121889;28;20233;-61
2022/06/15 00:36:07;;;;;;;2.72;1.70;;;;;;;16.53;57.08;98607.81;4117481;28;20264;-61
2022/06/15 00:38:09;;;;;;;4.35;1.80;;;;;;;16.45;57.10;98612.03;4106572;28;20199;-61
2022/06/15 00:40:11;;;;;;;2.15;1.42;;;;;;;16.43;57.15;98605.94;4134169;28;20738;-61
2022/06/15 00:42:13;;;;;;;1.58;1.30;;;;;;;16.39;56.94;98615.09;4116075;28;20776;-61
2022/06/15 00:44:26;;;;;;;1.58;1.45;;;;;;;16.35;56.80;98606.53;4119514;28;20334;-61
2022/06/15 00:46:34;;;;;;;2.40;1.80;;;;;;;16.36;56.88;98613.69;4137545;28;20985;-61
2022/06/15 00:48:36;;;;;;;3.40;2.13;;;;;;;16.38;56.82;98606.00;4121162;28;20240;-62
2022/06/15 00:50:37;;;;;;;2.25;1.73;;;;;;;16.35;56.85;98601.00;4124471;28;20199;-61
2022/06/15 00:52:57;;;;;;;1.98;1.63;;;;;;;16.36;57.00;98608.16;4124969;28;20686;-61
2022/06/15 00:55:04;;;;;;;1.73;1.40;;;;;;;16.33;57.25;98603.22;4123624;28;20233;-61
2022/06/15 00:57:06;;;;;;;2.88;1.65;;;;;;;16.29;57.08;98598.56;4138842;28;20229;-61
2022/06/15 00:59:25;;;;;;;3.42;1.52;;;;;;;16.25;56.80;98598.31;4118366;28;20215;-61
2022/06/15 01:01:27;;;;;;;1.88;1.52;;;;;;;16.21;56.65;98594.44;4133301;28;20652;-62
2022/06/15 01:03:29;;;;;;;2.33;1.40;;;;;;;16.18;56.41;98589.50;4121083;28;20237;-60
2022/06/15 01:05:52;;;;;;;1.58;1.48;;;;;;;16.10;56.64;98581.78;4123979;28;22087;-60
2022/06/15 01:07:56;;;;;;;2.58;1.42;;;;;;;16.12;56.49;98596.16;4133327;28;20205;-60
2022/06/15 01:10:25;;;;;;;2.60;1.45;;;;;;;16.10;56.51;98586.50;4110101;28;20265;-60
2022/06/15 01:12:31;;;;;;;1.85;1.75;;;;;;;16.12;56.75;98584.28;4131351;28;20232;-60
2022/06/15 01:14:50;;;;;;;2.10;1.98;;;;;;;16.11;56.82;98580.72;4133880;28;20229;-60
2022/06/15 01:16:52;;;;;;;1.55;1.33;;;;;;;16.12;56.89;98585.13;4121693;28;20266;-60
2022/06/15 01:19:31;;;;;;;2.47;1.30;;;;;;;16.11;56.92;98582.63;4121808;28;20277;-60
2022/06/15 01:21:37;;;;;;;1.48;1.27;;;;;;;16.14;57.16;98588.41;4121634;28;20202;-61
2022/06/15 01:24:21;;;;;;;1.90;1.70;;;;;;;16.13;57.27;98586.75;4124974;28;20230;-61
2022/06/15 01:26:35;;;;;;;1.95;1.75;;;;;;;16.02;57.65;98579.63;4137480;28;20217;-61
2022/06/15 01:28:40;;;;;;;2.15;1.90;;;;;;;15.96;58.23;98579.94;4137854;28;20209;-61
2022/06/15 01:30:46;;;;;;;1.90;1.80;;;;;;;15.88;58.49;98584.13;4125333;28;20202;-61
2022/06/15 01:32:51;;;;;;;2.33;1.92;;;;;;;15.82;58.70;98579.72;4122270;28;20214;-61
2022/06/15 01:35:07;;;;;;;2.00;1.40;;;;;;;15.78;58.52;98584.16;4139317;28;20258;-61
2022/06/15 01:37:34;;;;;;;1.40;1.30;;;;;;;15.76;58.42;98580.84;4122863;28;20225;-61
2022/06/15 01:40:10;;;;;;;1.60;1.30;;;;;;;15.70;58.74;98579.22;4140046;28;20626;-61
2022/06/15 01:42:36;;;;;;;1.75;1.50;;;;;;;15.66;58.75;98580.06;4110669;28;20241;-61
2022/06/15 01:44:47;;;;;;;1.40;1.30;;;;;;;15.58;58.68;98569.59;4123844;28;20304;-62
2022/06/15 01:46:49;;;;;;;3.08;1.48;;;;;;;15.59;58.34;98579.53;4124601;28;20672;-61
2022/06/15 01:48:54;;;;;;;2.83;1.38;;;;;;;15.58;58.19;98567.69;4123552;28;20640;-61
2022/06/15 01:51:00;;;;;;;5.35;1.73;;;;;;;15.57;57.95;98570.72;4137106;28;20217;-61
2022/06/15 01:53:10;;;;;;;2.03;1.23;;;;;;;15.54;57.84;98572.09;4121681;28;20206;-61
2022/06/15 01:55:20;;;;;;;3.47;1.80;;;;;;;15.50;57.94;98571.00;4110358;28;20199;-61
2022/06/15 01:57:22;;;;;;;3.38;1.42;;;;;;;15.48;58.05;98575.13;4106989;28;20229;-61
2022/06/15 01:59:34;;;;;;;2.67;1.27;;;;;;;15.46;57.75;98572.69;4122351;28;20207;-62
2022/06/15 02:01:44;;;;;;;12.35;1.50;;;;;;;15.46;57.91;98575.44;4122870;28;20656;-61
2022/06/15 02:03:54;;;;;;;2.53;1.52;;;;;;;15.39;58.08;98569.41;4125340;28;20302;-61
2022/06/15 02:06:02;;;;;;;2.47;1.50;;;;;;;15.34;58.56;98572.16;4108405;28;20206;-62
2022/06/15 02:08:39;;;;;;;1.85;1.30;;;;;;;15.31;58.50;98566.34;4123304;28;20205;-61
2022/06/15 02:10:46;;;;;;;1.35;1.25;;;;;;;15.23;58.54;98570.47;4134805;28;20213;-61
2022/06/15 02:12:56;;;;;;;2.78;1.38;;;;;;;15.25;58.57;98573.81;4137433;28;20231;-61
2022/06/15 02:14:59;;;;;;;3.50;1.40;;;;;;;15.23;58.35;98569.66;4121584;28;20229;-60
2022/06/15 02:17:21;;;;;;;2.22;1.23;;;;;;;15.20;58.22;98573.81;4126413;28;20225;-61
2022/06/15 02:19:34;;;;;;;3.08;1.27;;;;;;;15.23;57.90;98566.91;4132650;28;20502;-61
2022/06/15 02:21:37;;;;;;;4.22;1.85;;;;;;;15.21;57.81;98572.69;4137286;28;20256;-61
2022/06/15 02:23:40;;;;;;;1.08;1.05;;;;;;;15.19;57.64;98569.41;4137206;28;20724;-61
2022/06/15 02:25:44;;;;;;;1.33;1.23;;;;;;;15.19;57.64;98574.91;4136563;28;20201;-62
2022/06/15 02:27:47;;;;;;;1.45;1.25;;;;;;;15.18;57.74;98576.03;4134673;28;20205;-61
2022/06/15 02:29:53;;;;;;;1.80;1.30;;;;;;;15.17;57.52;98571.59;4107644;28;20202;-62
2022/06/15 02:31:56;;;;;;;1.35;1.02;;;;;;;15.16;57.66;98571.88;4121807;28;20202;-60
2022/06/15 02:34:01;;;;;;;1.85;1.02;;;;;;;15.16;57.43;98574.66;4132495;28;20416;-60
2022/06/15 02:36:04;;;;;;;1.70;1.30;;;;;;;15.15;57.59;98573.81;4137262;28;20842;-62
2022/06/15 02:38:06;;;;;;;4.45;1.00;;;;;;;15.15;57.42;98567.47;4125290;28;20935;-61
2022/06/15 02:40:08;;;;;;;1.17;1.08;;;;;;;15.10;57.48;98576.56;4128793;28;20214;-61
2022/06/15 02:42:28;;;;;;;1.20;1.10;;;;;;;15.06;57.38;98575.47;4110957;28;20648;-61
2022/06/15 02:44:33;;;;;;;1.67;1.38;;;;;;;15.03;57.43;98569.69;4125152;28;20279;-62
2022/06/15 02:46:39;;;;;;;2.05;1.38;;;;;;;15.04;57.62;98580.44;4122829;28;20210;-62
2022/06/15 02:48:41;;;;;;;1.10;0.98;;;;;;;15.01;57.67;98577.41;4108935;28;20214;-61
2022/06/15 02:50:47;;;;;;;5.28;1.13;;;;;;;15.01;57.80;98583.75;4121304;28;20692;-61
2022/06/15 02:53:06;;;;;;;1.50;1.30;;;;;;;14.95;57.70;98579.34;4136688;28;20205;-62
2022/06/15 02:55:08;;;;;;;2.45;1.25;;;;;;;14.94;57.94;98577.69;4118642;28;20211;-61
2022/06/15 02:57:11;;;;;;;1.98;1.45;;;;;;;14.89;58.00;98579.63;4136177;28;20225;-61
2022/06/15 02:59:13;;;;;;;1.33;1.20;;;;;;;14.87;58.06;98577.16;4123438;28;20269;-61
2022/06/15 03:01:15;;;;;;;1.30;1.20;;;;;;;14.91;58.23;98580.19;4116257;28;20330;-61
2022/06/15 03:03:17;;;;;;;1.85;1.40;;;;;;;14.84;58.38;98583.19;4122619;28;20206;-61
2022/06/15 03:05:19;;;;;;;6.35;1.65;;;;;;;14.75;58.67;98584.84;4120521;28;20210;-61
2022/06/15 03:07:22;;;;;;;2.30;1.55;;;;;;;14.73;58.77;98587.06;4136495;28;20254;-61
2022/06/15 03:09:24;;;;;;;2.00;1.48;;;;;;;14.72;58.61;98582.66;4121511;28;20220;-61
2022/06/15 03:11:27;;;;;;;4.15;1.52;;;;;;;14.76;58.91;98586.50;4135029;28;20205;-61
2022/06/15 03:13:29;;;;;;;5.90;1.52;;;;;;;14.74;58.52;98585.13;4120808;28;20256;-61
2022/06/15 03:15:31;;;;;;;2.63;1.73;;;;;;;14.72;58.66;98579.91;4135471;28;20336;-61
2022/06/15 03:17:32;;;;;;;2.97;1.73;;;;;;;14.66;58.96;98583.75;4105220;28;20697;-61
2022/06/15 03:19:34;;;;;;;1.30;1.20;;;;;;;14.61;58.86;98583.75;4121440;28;20210;-61
2022/06/15 03:21:36;;;;;;;1.92;1.45;;;;;;;14.61;58.84;98577.41;4122328;28;20210;-61
2022/06/15 03:23:38;;;;;;;1.55;1.15;;;;;;;14.60;59.03;98579.34;4136510;28;20226;-61
2022/06/15 03:25:40;;;;;;;1.73;1.63;;;;;;;14.56;58.78;98578.22;4121319;28;20353;-61
2022/06/15 03:27:41;;;;;;;1.50;1.35;;;;;;;14.56;59.14;98580.97;4124011;28;20198;-61
2022/06/15 03:29:43;;;;;;;7.38;1.45;;;;;;;14.58;59.00;98578.78;4125810;28;20225;-61
2022/06/15 03:31:45;;;;;;;4.32;1.60;;;;;;;14.58;59.08;98584.28;4124127;28;20734;-61
2022/06/15 03:33:47;;;;;;;1.60;1.33;;;;;;;14.62;59.33;98582.66;4123084;28;20318;-60
2022/06/15 03:35:49;;;;;;;4.15;1.77;;;;;;;14.64;59.65;98583.19;4123301;28;20206;-61
2022/06/15 03:37:50;;;;;;;5.45;1.83;;;;;;;14.66;59.69;98585.69;4124570;28;20230;-61
2022/06/15 03:39:55;;;;;;;4.57;1.55;;;;;;;14.67;59.63;98577.16;4119458;28;20214;-61
2022/06/15 03:42:10;;;;;;;10.43;1.50;;;;;;;14.67;59.91;98581.81;4121562;28;20269;-60
2022/06/15 03:44:12;;;;;;;1.63;1.45;;;;;;;14.70;59.98;98582.09;4121427;28;20231;-61
2022/06/15 03:46:14;;;;;;;2.95;1.48;;;;;;;14.70;59.81;98582.09;4128616;28;20238;-61
2022/06/15 03:48:18;;;;;;;1.77;1.55;;;;;;;14.70;60.13;98586.78;4120024;28;20209;-61
2022/06/15 03:50:20;;;;;;;2.22;2.03;;;;;;;14.69;60.17;98580.44;4135320;28;20210;-61
2022/06/15 03:52:24;;;;;;;1.60;1.50;;;;;;;14.70;60.39;98584.84;4107642;28;20215;-61
2022/06/15 03:54:25;;;;;;;2.22;1.73;;;;;;;14.68;60.40;98584.31;4107922;28;20274;-61
2022/06/15 03:56:44;;;;;;;10.73;1.95;;;;;;;14.62;60.82;98574.38;4117057;28;20296;-61
2022/06/15 03:58:46;;;;;;;1.60;1.50;;;;;;;14.61;61.23;98582.91;4117179;28;21986;-61
2022/06/15 04:00:48;;;;;;;1.90;1.50;;;;;;;14.56;61.20;98586.50;4119259;28;20925;-61
2022/06/15 04:02:52;;;;;;;2.17;1.92;;;;;;;14.48;61.37;98587.03;4119993;28;20260;-61
2022/06/15 04:04:54;;;;;;;2.00;1.45;;;;;;;14.44;61.66;98580.41;4121683;28;20277;-61
2022/06/15 04:06:56;;;;;;;2.22;1.58;;;;;;;14.44;61.37;98580.41;4120952;28;20214;-61
2022/06/15 04:08:58;;;;;;;1.63;1.30;;;;;;;14.44;61.31;98582.34;4121139;28;20213;-61
2022/06/15 04:11:10;;;;;;;2.60;1.38;;;;;;;14.45;61.47;98589.50;4134425;28;20205;-61
2022/06/15 04:13:14;;;;;;;1.75;1.10;;;;;;;14.47;61.56;98590.91;4119096;28;20229;-61
2022/06/15 04:15:16;;;;;;;1.88;1.60;;;;;;;14.46;61.36;98586.50;4106699;28;20203;-61
2022/06/15 04:17:18;;;;;;;2.15;1.50;;;;;;;14.46;61.11;98585.66;4120420;28;20225;-62
2022/06/15 04:19:21;;;;;;;1.88;1.45;;;;;;;14.47;60.99;98599.16;4138966;28;20247;-61
2022/06/15 04:21:25;;;;;;;1.70;1.42;;;;;;;14.49;61.16;98596.13;4136264;28;20586;-61
2022/06/15 04:23:27;;;;;;;1.88;1.65;;;;;;;14.51;60.88;98594.72;4123072;28;20238;-61
2022/06/15 04:25:30;;;;;;;1.45;1.35;;;;;;;14.51;61.11;98594.72;4125623;28;20218;-61
2022/06/15 04:27:33;;;;;;;1.45;1.30;;;;;;;14.52;61.06;98606.59;4123052;28;20210;-61
2022/06/15 04:29:34;;;;;;;1.95;1.45;;;;;;;14.53;61.19;98603.56;4138251;28;20232;-61
2022/06/15 04:31:38;;;;;;;3.03;1.60;;;;;;;14.54;61.31;98605.22;4122537;28;20202;-61
2022/06/15 04:33:40;;;;;;;1.48;1.38;;;;;;;14.57;61.50;98606.59;4139254;28;20371;-62
2022/06/15 04:35:42;;;;;;;1.63;1.35;;;;;;;14.57;61.39;98599.16;4138885;28;20202;-61
2022/06/15 04:37:44;;;;;;;1.80;1.70;;;;;;;14.59;61.33;98602.47;4124546;28;20236;-62
2022/06/15 04:39:45;;;;;;;1.58;1.40;;;;;;;14.59;61.28;98602.47;4124244;28;20210;-62
2022/06/15 04:41:47;;;;;;;4.05;1.58;;;;;;;14.59;61.12;98608.00;4118524;28;20210;-61
2022/06/15 04:43:49;;;;;;;3.20;1.52;;;;;;;14.57;61.39;98599.16;4139536;28;20222;-61
2022/06/15 04:45:51;;;;;;;2.33;1.83;;;;;;;14.58;61.40;98605.50;4118399;28;20739;-60
2022/06/15 04:47:52;;;;;;;1.55;1.35;;;;;;;14.59;61.52;98602.47;4124995;28;20202;-61
2022/06/15 04:49:54;;;;;;;1.75;1.30;;;;;;;14.61;61.24;98603.03;4139697;28;20214;-61
2022/06/15 04:51:56;;;;;;;2.10;1.65;;;;;;;14.64;61.21;98598.91;4108406;28;20268;-61
2022/06/15 04:53:59;;;;;;;2.30;1.45;;;;;;;14.72;61.23;98595.59;4124024;28;20779;-61
2022/06/15 04:56:01;;;;;;;4.95;1.63;;;;;;;14.77;60.88;98603.88;4126329;28;20305;-61
2022/06/15 04:58:03;;;;;;;1.50;1.40;;;;;;;14.84;61.01;98604.44;4128091;28;20732;-61
2022/06/15 05:00:07;;;;;;;2.00;1.60;;;;;;;14.81;60.79;98604.97;4140448;28;20213;-61
2022/06/15 05:02:10;;;;;;;3.33;1.58;;;;;;;14.84;60.43;98610.75;4123808;28;20206;-62
2022/06/15 05:04:14;;;;;;;3.15;1.63;;;;;;;14.90;60.15;98606.88;4120183;28;20233;-62
2022/06/15 05:06:21;;;;;;;1.45;1.35;;;;;;;15.10;59.07;98609.63;4126811;28;20202;-62
2022/06/15 05:08:23;;;;;;;2.15;1.20;;;;;;;15.02;59.16;98612.16;4134592;28;20679;-62
2022/06/15 05:10:26;;;;;;;4.80;1.42;;;;;;;14.99;59.19;98616.28;4138673;28;20217;-62
2022/06/15 05:12:29;;;;;;;3.28;1.33;;;;;;;15.00;59.25;98615.16;4137953;28;20205;-62
2022/06/15 05:14:30;;;;;;;2.05;1.30;;;;;;;15.06;59.06;98614.06;4109040;28;20234;-61
2022/06/15 05:16:33;;;;;;;7.07;1.60;;;;;;;15.14;58.68;98616.25;4113185;28;20733;-61
2022/06/15 05:18:34;;;;;;;2.10;1.50;;;;;;;14.97;59.36;98610.19;4114627;28;20226;-62
2022/06/15 05:20:40;;;;;;;2.28;1.63;;;;;;;15.20;58.69;98617.91;4109071;28;20211;-62
2022/06/15 05:22:42;;;;;;;2.15;1.35;;;;;;;15.23;58.70;98614.59;4130006;28;20201;-63
2022/06/15 05:24:44;;;;;;;3.03;1.20;;;;;;;15.38;58.27;98608.28;4101372;28;20747;-63
2022/06/15 05:26:46;;;;;;;2.42;1.52;;;;;;;15.39;58.34;98615.44;4123450;28;20685;-61
2022/06/15 05:28:48;;;;;;;3.70;1.83;;;;;;;15.53;57.84;98625.63;4104064;28;20203;-62
2022/06/15 05:31:06;;;;;;;1.50;1.35;;;;;;;15.59;57.69;98621.75;4135311;28;20217;-62
2022/06/15 05:33:08;;;;;;;2.30;1.75;;;;;;;15.69;57.38;98624.47;4126216;28;20599;-61
2022/06/15 05:35:09;;;;;;;1.55;1.20;;;;;;;15.85;57.21;98611.44;4137954;28;20244;-62
2022/06/15 05:37:11;;;;;;;2.00;1.80;;;;;;;15.97;56.72;98620.25;4123441;28;20225;-59
2022/06/15 05:39:14;;;;;;;4.13;1.92;;;;;;;15.96;55.83;98613.88;4103777;28;21819;-60
2022/06/15 05:41:15;;;;;;;2.05;1.30;;;;;;;15.98;56.30;98617.22;4103396;28;20203;-57
2022/06/15 05:43:17;;;;;;;1.85;1.60;;;;;;;15.97;55.65;98615.53;4115135;28;20276;-59
2022/06/15 05:45:19;;;;;;;1.95;1.42;;;;;;;15.96;56.01;98613.88;4121691;28;20693;-58
2022/06/15 05:47:21;;;;;;;2.47;1.45;;;;;;;16.02;56.12;98607.25;4121121;28;20210;-57
2022/06/15 05:49:23;;;;;;;2.22;1.30;;;;;;;16.14;56.27;98613.25;4136672;28;20244;-58
2022/06/15 05:51:26;;;;;;;3.28;1.60;;;;;;;16.32;55.33;98614.56;4117056;28;20207;-58
2022/06/15 05:53:27;;;;;;;2.00;1.45;;;;;;;16.45;55.27;98612.03;4122258;28;20755;-58
2022/06/15 05:55:29;;;;;;;1.25;1.15;;;;;;;16.42;55.31;98612.59;4139166;28;20672;-58
2022/06/15 05:57:31;;;;;;;5.85;1.42;;;;;;;16.50;55.46;98620.28;4137677;28;20197;-58
2022/06/15 05:59:32;;;;;;;3.42;1.48;;;;;;;16.38;55.30;98614.28;4118855;28;20194;-54
2022/06/15 06:01:36;;;;;;;3.58;1.50;;;;;;;16.75;55.54;98616.53;4117538;28;20214;-55
2022/06/15 06:03:38;;;;;;;8.60;1.40;;;;;;;17.08;55.87;98614.63;4123646;28;20218;-57
2022/06/15 06:05:39;;;;;;;3.15;1.25;;;;;;;17.39;55.17;98623.50;4114624;28;20210;-57
2022/06/15 06:07:41;;;;;;;2.10;1.20;;;;;;;17.62;54.91;98623.53;4118245;28;20210;-57
2022/06/15 06:09:43;;;;;;;2.53;1.00;;;;;;;17.86;54.46;98618.00;4133198;28;20217;-57
2022/06/15 06:11:45;;;;;;;1.20;1.10;;;;;;;18.14;53.68;98614.34;4118611;28;20243;-57
2022/06/15 06:13:47;;;;;;;2.35;1.27;;;;;;;18.32;53.32;98611.63;4135904;28;20229;-56
2022/06/15 06:15:55;;;;;;;8.30;2.40;;;;;;;18.49;52.75;98611.13;4123457;28;20644;-57
2022/06/15 06:18:01;;;;;;;2.42;1.40;;;;;;;18.60;52.61;98607.09;4135396;28;20234;-55
2022/06/15 06:20:03;;;;;;;0.98;0.98;;;;;;;18.75;52.35;98602.16;4123481;28;20272;-56
2022/06/15 06:22:04;;;;;;;2.00;1.15;;;;;;;18.92;51.94;98607.97;4139010;28;20233;-55
2022/06/15 06:24:06;;;;;;;5.55;1.40;;;;;;;19.05;52.15;98614.72;4133424;28;20955;-56
2022/06/15 06:26:24;;;;;;;3.28;1.30;;;;;;;19.20;51.51;98612.53;4123826;28;20205;-56
2022/06/15 06:28:29;;;;;;;2.38;1.55;;;;;;;19.07;51.11;98606.91;4139047;28;20216;-56
2022/06/15 06:30:31;;;;;;;1.10;1.00;;;;;;;19.23;51.71;98608.31;4116189;28;20225;-56
2022/06/15 06:32:33;;;;;;;1.90;1.17;;;;;;;19.45;51.38;98608.50;4123319;28;20328;-56
2022/06/15 06:34:35;;;;;;;3.47;0.98;;;;;;;19.56;51.17;98607.16;4117810;28;20230;-57
2022/06/15 06:36:40;;;;;;;3.55;1.20;;;;;;;19.68;50.23;98610.28;4120090;28;20257;-56
2022/06/15 06:38:41;;;;;;;2.25;1.10;;;;;;;19.76;49.95;98606.78;4105415;28;20238;-56
2022/06/15 06:40:43;;;;;;;3.60;1.27;;;;;;;19.91;50.04;98612.06;4107605;28;20211;-56
2022/06/15 06:42:45;;;;;;;2.13;1.27;;;;;;;20.06;49.96;98604.25;4135058;28;20236;-57
2022/06/15 06:44:47;;;;;;;5.63;1.15;;;;;;;20.19;49.89;98608.97;4114444;28;20230;-55
2022/06/15 06:46:50;;;;;;;3.05;0.90;;;;;;;20.30;49.52;98620.75;4120523;28;20621;-57
2022/06/15 06:48:52;;;;;;;2.33;1.30;;;;;;;20.51;49.22;98619.16;4123250;28;20220;-56
2022/06/15 06:50:53;;;;;;;3.25;1.13;;;;;;;20.58;49.35;98616.78;4137187;28;20284;-55
2022/06/15 06:52:55;;;;;;;1.42;1.00;;;;;;;20.58;49.16;98612.03;4123925;28;20209;-55
2022/06/15 06:54:57;;;;;;;10.73;1.05;;;;;;;20.85;48.84;98619.50;4115305;28;20229;-55
2022/06/15 06:56:58;;;;;;;3.13;1.83;;;;;;;20.88;48.75;98621.66;4119379;28;20252;-57
2022/06/15 06:59:04;;;;;;;1.42;1.30;;;;;;;21.02;48.56;98622.44;4120010;28;20875;-57
2022/06/15 07:01:08;;;;;;;3.28;1.23;;;;;;;21.22;48.67;98624.72;4121025;28;20275;-57
2022/06/15 07:03:10;;;;;;;1.67;1.00;;;;;;;21.25;48.46;98621.31;4113460;28;20214;-56
2022/06/15 07:05:12;;;;;;;2.05;1.30;;;;;;;21.36;48.72;98628.25;4121944;28;20756;-56
2022/06/15 07:07:15;;;;;;;1.63;0.95;;;;;;;21.46;48.53;98625.22;4125130;28;20296;-56
2022/06/15 07:09:16;;;;;;;3.97;1.00;;;;;;;21.53;47.92;98628.38;4138136;28;20205;-57
2022/06/15 07:11:18;;;;;;;1.58;0.85;;;;;;;21.71;47.89;98630.19;4136244;28;20702;-57
2022/06/15 07:13:20;;;;;;;3.42;1.40;;;;;;;21.94;48.00;98634.53;4127273;28;20338;-56
2022/06/15 07:15:22;;;;;;;1.58;1.25;;;;;;;21.95;47.56;98641.75;4120762;28;20241;-57
2022/06/15 07:17:23;;;;;;;6.43;1.40;;;;;;;22.22;47.51;98630.41;4116916;28;20211;-57
2022/06/15 07:19:25;;;;;;;1.63;1.15;;;;;;;22.12;47.24;98631.50;4138342;28;20225;-56
2022/06/15 07:21:28;;;;;;;3.75;1.20;;;;;;;22.30;46.76;98626.84;4135235;28;20226;-56
2022/06/15 07:23:30;;;;;;;2.10;1.27;;;;;;;22.29;47.26;98625.16;4122643;28;20268;-57
2022/06/15 07:25:32;;;;;;;4.88;1.67;;;;;;;22.22;46.09;98630.41;4121941;28;20611;-57
2022/06/15 07:27:36;;;;;;;3.00;1.30;;;;;;;22.16;45.61;98631.69;4126355;28;20281;-57
2022/06/15 07:29:38;;;;;;;2.28;1.25;;;;;;;22.38;46.44;98617.69;4121644;28;20205;-57
2022/06/15 07:31:42;;;;;;;3.65;1.10;;;;;;;22.51;46.32;98628.72;4136775;28;20658;-55
2022/06/15 07:33:43;;;;;;;5.15;1.60;;;;;;;22.76;46.25;98632.72;4122352;28;20229;-56
2022/06/15 07:35:45;;;;;;;4.50;1.60;;;;;;;22.77;46.11;98635.16;4136489;28;20338;-57
2022/06/15 07:37:48;;;;;;;4.40;1.20;;;;;;;22.91;46.53;98635.84;4137962;28;20272;-57
2022/06/15 07:40:11;;;;;;;2.55;1.35;;;;;;;23.01;46.57;98643.91;4138127;28;20208;-57
2022/06/15 07:42:13;;;;;;;2.70;1.10;;;;;;;22.92;45.56;98639.47;4119540;28;20201;-57
2022/06/15 07:44:17;;;;;;;1.50;1.20;;;;;;;23.45;46.31;98648.38;4135701;28;20224;-57
2022/06/15 07:46:19;;;;;;;2.00;1.30;;;;;;;22.88;44.35;98638.47;4115870;28;20237;-57
2022/06/15 07:50:48;;;;;;;1.77;1.23;;;;;;;23.20;44.75;98643.63;4133022;28;20197;-56
2022/06/15 07:52:51;;;;;;;2.83;1.30;;;;;;;23.27;45.02;98641.16;4115482;28;20707;-57
2022/06/15 07:54:53;;;;;;;4.88;1.02;;;;;;;23.53;45.28;98644.75;4136943;28;20220;-57
2022/06/15 07:56:56;;;;;;;3.35;1.15;;;;;;;23.72;43.84;98643.25;4122312;28;20325;-56
2022/06/15 07:58:58;;;;;;;4.00;1.23;;;;;;;23.91;44.70;98640.09;4125617;28;20711;-56
2022/06/15 08:01:00;;;;;;;5.45;1.50;;;;;;;23.92;44.87;98637.78;4129715;28;20280;-56
2022/06/15 08:03:03;;;;;;;1.80;1.35;;;;;;;24.17;45.09;98642.47;4125973;28;20300;-58
2022/06/15 08:05:06;;;;;;;3.28;1.48;;;;;;;23.89;43.27;98636.81;4122891;28;20253;-56
2022/06/15 08:07:09;;;;;;;8.30;1.65;;;;;;;23.92;44.13;98642.56;4134666;28;20781;-57
2022/06/15 08:09:13;;;;;;;2.42;1.58;;;;;;;23.87;43.37;98636.31;4116767;28;20201;-57
2022/06/15 08:11:15;;;;;;;0.93;0.88;;;;;;;24.27;45.06;98644.88;4130060;28;20284;-56
2022/06/15 08:13:18;;;;;;;5.03;1.30;;;;;;;24.53;44.71;98637.19;4116202;28;20614;-57
2022/06/15 08:15:21;;;;;;;4.38;1.85;;;;;;;24.57;43.49;98627.00;4131967;28;20213;-57
2022/06/15 08:17:43;;;;;;;1.65;1.13;;;;;;;24.50;43.43;98626.66;4116728;28;21035;-57
2022/06/15 08:19:51;;;;;;;2.42;1.10;;;;;;;24.81;43.32;98627.16;4117832;28;20217;-57
2022/06/15 08:21:53;;;;;;;3.60;1.92;;;;;;;24.96;43.48;98628.53;4132224;28;20275;-57
2022/06/15 08:23:57;;;;;;;3.00;1.45;;;;;;;25.16;42.88;98634.16;4116291;28;20483;-57
2022/06/15 08:26:03;;;;;;;3.47;1.33;;;;;;;25.37;43.36;98635.00;4122131;28;20584;-57
2022/06/15 08:28:05;;;;;;;2.08;1.40;;;;;;;25.65;42.82;98638.84;4119915;28;20265;-57
2022/06/15 08:30:10;;;;;;;2.17;1.10;;;;;;;25.77;42.96;98638.88;4118125;28;20212;-56
2022/06/15 08:32:11;;;;;;;3.15;1.20;;;;;;;25.84;42.84;98630.72;4132591;28;20209;-57
2022/06/15 08:34:14;;;;;;;3.00;1.40;;;;;;;26.03;42.57;98633.84;4118438;28;20226;-57
2022/06/15 08:36:15;;;;;;;4.88;1.30;;;;;;;26.08;41.38;98633.63;4122640;28;20264;-57
2022/06/15 08:38:20;;;;;;;3.00;1.75;;;;;;;26.32;41.77;98630.81;4137950;28;20213;-57
2022/06/15 08:40:22;;;;;;;3.42;1.20;;;;;;;26.42;40.85;98619.16;4124780;28;20310;-56
2022/06/15 08:42:43;;;;;;;2.33;1.30;;;;;;;26.37;40.88;98625.00;4137755;28;20201;-57
2022/06/15 08:45:12;;;;;;;2.97;1.20;;;;;;;26.52;41.15;98626.28;4135049;28;20707;-57
2022/06/15 08:47:29;;;;;;;2.35;1.38;;;;;;;26.69;40.55;98638.13;4136175;28;20200;-57
2022/06/15 08:49:53;;;;;;;4.05;1.90;;;;;;;26.81;41.05;98628.88;4123312;28;20248;-57
2022/06/15 08:52:01;;;;;;;3.40;1.30;;;;;;;26.83;39.96;98620.91;4125870;28;20256;-57
2022/06/15 08:54:17;;;;;;;4.05;1.30;;;;;;;26.89;39.03;98625.94;4124977;28;20236;-57
2022/06/15 08:56:46;;;;;;;2.15;1.02;;;;;;;26.88;38.15;98627.09;4124373;28;20220;-57
2022/06/15 08:59:29;;;;;;;5.10;1.10;;;;;;;26.91;40.37;98623.56;4139508;28;20745;-58
2022/06/15 09:01:59;;;;;;;3.83;1.13;;;;;;;27.07;39.77;98620.84;4128300;28;20206;-57
2022/06/15 09:04:10;;;;;;;2.10;1.63;;;;;;;27.27;39.61;98620.69;4125920;28;20385;-57
2022/06/15 09:06:19;;;;;;;4.00;1.40;;;;;;;27.18;36.71;98617.22;4139543;28;20224;-57
2022/06/15 09:08:42;;;;;;;2.55;1.23;;;;;;;27.30;38.60;98620.00;4125491;28;20300;-57
2022/06/15 09:11:06;;;;;;;4.95;1.23;;;;;;;27.41;38.72;98612.72;4126944;28;20205;-56
2022/06/15 09:13:33;;;;;;;3.17;1.25;;;;;;;27.59;37.28;98611.19;4142837;28;20363;-57
2022/06/15 09:15:56;;;;;;;7.60;1.10;;;;;;;27.76;38.25;98616.56;4142225;28;20213;-57
2022/06/15 09:18:02;;;;;;;4.95;2.00;;;;;;;27.84;37.49;98621.19;4125313;28;20205;-57
2022/06/15 09:20:11;;;;;;;2.78;1.10;;;;;;;27.78;37.65;98619.81;4136520;28;20634;-57
2022/06/15 09:22:17;;;;;;;3.08;1.38;;;;;;;27.97;38.45;98617.13;4120706;28;20205;-56
2022/06/15 09:24:40;;;;;;;1.33;1.20;;;;;;;28.08;38.21;98612.59;4134436;28;20283;-57
2022/06/15 09:26:49;;;;;;;2.08;1.02;;;;;;;28.20;37.46;98614.50;4132073;28;20308;-57
2022/06/15 09:28:56;;;;;;;6.97;1.40;;;;;;;28.07;37.32;98610.97;4119749;28;20328;-57
2022/06/15 09:31:12;;;;;;;4.97;1.88;;;;;;;28.15;38.22;98612.78;4124854;28;20279;-57
2022/06/15 09:33:29;;;;;;;3.67;1.65;;;;;;;28.29;36.62;98610.34;4140247;28;20260;-57
2022/06/15 09:35:44;;;;;;;2.45;1.42;;;;;;;27.94;37.52;98617.88;4138757;28;20478;-57
2022/06/15 09:37:51;;;;;;;2.13;1.20;;;;;;;28.34;37.68;98609.25;4118596;28;20978;-57
2022/06/15 09:39:53;;;;;;;3.47;1.58;;;;;;;28.56;36.13;98611.44;4122995;28;20214;-56
2022/06/15 09:42:12;;;;;;;3.58;1.40;;;;;;;28.72;37.52;98610.22;4124823;28;20201;-57
2022/06/15 09:44:24;;;;;;;7.40;1.55;;;;;;;28.57;37.62;98611.06;4136495;28;20751;-57
2022/06/15 09:47:03;;;;;;;5.65;1.50;;;;;;;28.91;37.93;98612.31;4126886;28;20211;-57
2022/06/15 09:49:11;;;;;;;2.42;1.45;;;;;;;28.91;37.76;98618.75;4138387;28;20582;-56
2022/06/15 09:51:13;;;;;;;2.20;1.20;;;;;;;29.25;37.41;98612.28;4138452;28;20330;-57
2022/06/15 09:53:30;;;;;;;2.00;1.40;;;;;;;29.32;36.55;98606.81;4136681;28;20216;-57
2022/06/15 09:55:51;;;;;;;4.95;1.20;;;;;;;29.28;37.01;98611.56;4119058;28;20231;-57
2022/06/15 09:58:16;;;;;;;2.55;1.65;;;;;;;29.46;37.18;98611.94;4123269;28;20216;-56